EW5121 Weather Reports


Display with metric or nautical units.
time (UTC)temp
F
wind
direction
speed
MPH
gust
MPH
rain 1hr
in
rain 24hr
in
rain mn
in
humidity
%
barometer
mb
20171216183931 94 68 3.0 4.0 0.00 0.00 0.00 39 1011.2
20171216182930 93 354 3.0 4.0 0.00 0.00 0.00 39 1011.2
20171216181929 93 72 1.0 3.0 0.00 0.00 0.00 39 1011.5
20171216180928 93 338 3.0 3.0 0.00 0.00 0.00 40 1011.5
20171216175926 93 83 2.0 4.0 0.00 0.00 0.00 39 1011.9
20171216174924 94 180 1.0 2.0 0.00 0.00 0.00 40 1011.9
20171216173923 95 56 2.0 2.0 0.00 0.00 0.00 39 1012.2
20171216172921 95 37 2.0 4.0 0.00 0.00 0.00 39 1012.2
20171216171920 95 11 3.0 4.0 0.00 0.00 0.00 39 1012.5
20171216170919 96 59 3.0 4.0 0.00 0.00 0.00 39 1012.9
20171216165917 95 158 2.0 3.0 0.00 0.00 0.00 39 1012.9
20171216164915 95 16 2.0 3.0 0.00 0.00 0.00 39 1013.2
20171216163914 96 68 2.0 2.0 0.00 0.00 0.00 39 1013.5
20171216162913 95 349 3.0 5.0 0.00 0.00 0.00 40 1013.5
20171216161911 94 338 2.0 3.0 0.00 0.00 0.00 41 1013.5
20171216160909 93 345 2.0 4.0 0.00 0.00 0.00 42 1013.5
20171216155908 93 47 3.0 4.0 0.00 0.00 0.00 41 1013.5
20171216154906 95 43 2.0 3.0 0.00 0.00 0.00 40 1013.5
20171216153905 95 51 1.0 3.0 0.00 0.00 0.00 40 1013.2
20171216152903 94 352 1.0 4.0 0.00 0.00 0.00 41 1013.2
20171216151902 94 65 2.0 4.0 0.00 0.00 0.00 40 1012.9
20171216150900 95 46 2.0 3.0 0.00 0.00 0.00 40 1012.9
20171216145859 96 19 2.0 3.0 0.00 0.00 0.00 40 1012.9
20171216144857 96 293 2.0 5.0 0.00 0.00 0.00 40 1013.2
20171216143856 95 338 3.0 4.0 0.00 0.00 0.00 41 1013.5
20171216142854 95 5 2.0 3.0 0.00 0.00 0.00 42 1013.5
20171216141852 95 70 1.0 3.0 0.00 0.00 0.00 42 1013.9
20171216140851 95 156 1.0 3.0 0.00 0.00 0.00 42 1013.9
20171216135849 94 226 4.0 4.0 0.00 0.00 0.00 43 1013.9
20171216134848 93 11 1.0 3.0 0.00 0.00 0.00 45 1013.9
20171216133846 92 105 1.0 3.0 0.00 0.00 0.00 45 1014.2
20171216132844 91 9 2.0 4.0 0.00 0.00 0.00 46 1014.2
20171216131843 91 81 2.0 3.0 0.00 0.00 0.00 46 1014.2
20171216130841 90 0 3.0 4.0 0.00 0.00 0.00 46 1014.2
20171216125840 90 23 2.0 4.0 0.00 0.00 0.00 47 1014.2
20171216124839 89 9 0.0 3.0 0.00 0.00 0.00 48 1014.2
20171216123837 89 43 2.0 4.0 0.00 0.00 0.00 49 1014.6
20171216122835 88 68 4.0 5.0 0.00 0.00 0.00 49 1014.6
20171216121834 88 10 1.0 3.0 0.00 0.00 0.00 51 1014.6
20171216120832 87 329 1.0 2.0 0.00 0.00 0.00 52 1014.6
20171216115830 86 0 1.0 2.0 0.00 0.00 0.00 53 1014.6
20171216114829 84 345 2.0 3.0 0.00 0.00 0.00 54 1014.6
20171216113827 84 45 2.0 3.0 0.00 0.00 0.00 53 1014.6
20171216112826 83 80 2.0 4.0 0.00 0.00 0.00 54 1014.6
20171216111825 82 16 1.0 3.0 0.00 0.00 0.00 55 1014.6
20171216110823 82 0 1.0 3.0 0.00 0.00 0.00 56 1014.6
20171216105821 81 4 1.0 2.0 0.00 0.00 0.00 57 1014.6
20171216104820 80 90 1.0 2.0 0.00 0.00 0.00 58 1014.6
20171216103818 80 118 2.0 3.0 0.00 0.00 0.00 60 1014.2
20171216102817 79 98 0.0 2.0 0.00 0.00 0.00 60 1014.2
20171216101816 79 98 0.0 3.0 0.00 0.00 0.00 61 1014.2
20171216100814 78 151 2.0 3.0 0.00 0.00 0.00 62 1014.2
20171216095813 77 113 1.0 1.0 0.00 0.00 0.00 63 1014.2
20171216094811 77 68 0.0 0.0 0.00 0.00 0.00 63 1013.9
20171216093809 76 90 0.0 0.0 0.00 0.00 0.00 64 1013.9
20171216092807 76 45 0.0 1.0 0.00 0.00 0.00 64 1013.9
20171216091806 76 45 0.0 0.0 0.00 0.00 0.00 64 1013.9
20171216090805 75 113 0.0 0.0 0.00 0.00 0.00 65 1013.5
20171216085804 75 113 0.0 0.0 0.00 0.00 0.00 65 1013.5
20171216084802 75 113 0.0 1.0 0.00 0.00 0.00 65 1013.2
20171216083801 75 135 0.0 0.0 0.00 0.00 0.00 65 1013.2
20171216082759 75 113 1.0 1.0 0.00 0.00 0.00 64 1012.9
20171216081758 75 90 1.0 1.0 0.00 0.00 0.00 64 1012.9
20171216080756 76 135 1.0 1.0 0.00 0.00 0.00 64 1012.9
20171216075754 76 135 0.0 2.0 0.00 0.00 0.00 63 1012.5
20171216074753 76 135 0.0 1.0 0.00 0.00 0.00 63 1012.5
20171216073751 76 210 1.0 1.0 0.00 0.00 0.00 63 1012.5
20171216072750 76 135 1.0 3.0 0.00 0.00 0.00 63 1012.2
20171216071748 76 135 1.0 2.0 0.00 0.00 0.00 63 1012.2
20171216070746 76 144 1.0 2.0 0.00 0.00 0.00 63 1012.2
20171216065745 77 113 1.0 2.0 0.00 0.00 0.00 63 1012.2
20171216064744 77 129 1.0 3.0 0.00 0.00 0.00 63 1012.2
20171216063742 77 180 0.0 0.0 0.00 0.00 0.00 63 1012.2
20171216062741 77 158 1.0 1.0 0.00 0.00 0.00 63 1012.2
20171216061740 77 236 1.0 2.0 0.00 0.00 0.00 63 1012.2
20171216060738 77 164 1.0 1.0 0.00 0.00 0.00 63 1012.2
20171216055739 77 180 0.0 0.0 0.00 0.00 0.00 63 1012.2
20171216054735 77 225 1.0 2.0 0.00 0.00 0.00 63 1012.2
20171216053734 77 90 0.0 1.0 0.00 0.00 0.00 63 1012.2
20171216052732 77 135 0.0 1.0 0.00 0.00 0.00 63 1012.2
20171216051731 77 168 1.0 1.0 0.00 0.00 0.00 63 1012.2
20171216050752 77 68 0.0 0.0 0.00 0.00 0.00 63 1012.2
20171216045729 77 23 0.0 1.0 0.00 0.00 0.00 63 1012.2
20171216044727 77 0 0.0 3.0 0.00 0.00 0.00 64 1012.2
20171216043726 77 117 2.0 5.0 0.00 0.00 0.00 64 1012.2
20171216042724 78 127 3.0 3.0 0.00 0.00 0.00 64 1012.2
20171216041722 78 126 2.0 2.0 0.00 0.00 0.00 64 1012.2
20171216040720 78 139 3.0 3.0 0.00 0.00 0.00 63 1012.2
20171216035719 78 142 2.0 5.0 0.00 0.00 0.00 63 1012.2
20171216034717 79 156 2.0 4.0 0.00 0.00 0.00 63 1012.2
20171216033716 79 188 2.0 5.0 0.00 0.00 0.00 63 1012.5
20171216032714 79 147 3.0 5.0 0.00 0.00 0.00 62 1012.5
20171216031713 79 171 1.0 2.0 0.00 0.00 0.00 63 1012.9
20171216030711 79 122 3.0 4.0 0.00 0.00 0.00 63 1012.9
20171216025709 79 163 3.0 5.0 0.00 0.00 0.00 63 1012.9
20171216024707 79 165 2.0 3.0 0.00 0.00 0.00 63 1012.9
20171216023706 80 126 2.0 3.0 0.00 0.00 0.00 63 1012.9
20171216022704 80 147 1.0 5.0 0.00 0.00 0.00 63 1012.9
20171216021702 80 178 3.0 5.0 0.00 0.00 0.00 63 1012.9
20171216020701 80 169 3.0 5.0 0.00 0.00 0.00 63 1012.9
20171216015659 80 108 2.0 4.0 0.00 0.00 0.00 63 1013.2
20171216014654 80 113 2.0 4.0 0.00 0.00 0.00 63 1012.9
20171216013653 80 140 2.0 4.0 0.00 0.00 0.00 63 1012.9
20171216012651 80 143 4.0 5.0 0.00 0.00 0.00 64 1012.9
20171216011650 80 101 3.0 6.0 0.00 0.00 0.00 63 1012.5
20171216010649 80 182 3.0 7.0 0.00 0.00 0.00 63 1012.5
20171216005647 81 158 5.0 7.0 0.00 0.00 0.00 63 1012.2
20171216004646 81 184 3.0 5.0 0.00 0.00 0.00 62 1012.2
20171216003644 81 143 3.0 5.0 0.00 0.00 0.00 62 1012.2
20171216002642 82 160 3.0 4.0 0.00 0.00 0.00 61 1012.2
20171216001640 82 110 3.0 6.0 0.00 0.00 0.00 60 1012.5
20171216000639 83 140 3.0 6.0 0.00 0.00 0.00 59 1012.5
20171215235637 83 175 2.0 8.0 0.00 0.00 0.00 59 1012.5
20171215234636 83 175 4.0 5.0 0.00 0.00 0.00 58 1012.5
20171215233634 84 110 3.0 5.0 0.00 0.00 0.00 59 1012.5
20171215232632 84 158 3.0 5.0 0.00 0.00 0.00 59 1012.5
20171215231630 84 141 3.0 5.0 0.00 0.00 0.00 59 1012.5
20171215230628 84 148 4.0 5.0 0.00 0.00 0.00 58 1012.5
20171215225627 85 145 3.0 5.0 0.00 0.00 0.00 58 1012.5
20171215224626 85 134 2.0 5.0 0.00 0.00 0.00 57 1012.5
20171215223623 85 133 4.0 5.0 0.00 0.00 0.00 56 1012.9
20171215222622 86 138 6.0 8.0 0.00 0.00 0.00 54 1012.9
20171215221620 86 145 4.0 7.0 0.00 0.00 0.00 52 1012.9
20171215220618 87 170 2.0 6.0 0.00 0.00 0.00 50 1012.5
20171215215616 88 163 3.0 5.0 0.00 0.00 0.00 49 1012.2
20171215214614 88 171 3.0 5.0 0.00 0.00 0.00 47 1011.9
20171215213612 89 162 4.0 5.0 0.00 0.00 0.00 46 1011.5
20171215212610 89 171 2.0 3.0 0.00 0.00 0.00 44 1011.5
20171215211609 89 236 1.0 2.0 0.00 0.00 0.00 44 1011.2
20171215210607 89 203 1.0 5.0 0.00 0.00 0.00 43 1011.2
20171215205606 89 161 1.0 3.0 0.00 0.00 0.00 44 1010.8
20171215204604 89 174 1.0 4.0 0.00 0.00 0.00 43 1010.8
20171215203602 90 231 3.0 4.0 0.00 0.00 0.00 44 1010.8
20171215202601 90 203 3.0 5.0 0.00 0.00 0.00 44 1010.8
20171215201559 90 215 2.0 4.0 0.00 0.00 0.00 45 1011.2
20171215200558 90 211 4.0 8.0 0.00 0.00 0.00 45 1011.2
20171215195556 90 175 5.0 8.0 0.00 0.00 0.00 44 1011.2
20171215194555 91 259 3.0 6.0 0.00 0.00 0.00 42 1011.2
20171215193553 91 179 2.0 4.0 0.00 0.00 0.00 42 1011.2
20171215192552 91 186 1.0 4.0 0.00 0.00 0.00 41 1011.2
20171215191550 91 212 2.0 4.0 0.00 0.00 0.00 41 1011.2
20171215190549 91 239 2.0 4.0 0.00 0.00 0.00 41 1011.5
20171215185547 91 244 2.0 5.0 0.00 0.00 0.00 41 1011.2
20171215184545 92 213 2.0 6.0 0.00 0.00 0.00 40 1011.2